Time;durP1;ratioP1;P1;durP2;ratioP2;P2;SDS_P1;SDS_P2;PMS_P1;PMS_P2;Temp;Humidity;BMP_temperature;BMP_pressure;BME280_temperature;BME280_humidity;BME280_pressure;Samples;Min_cycle;Max_cycle;Signal;HPM_P1;HPM_P2
2022/05/22 00:01:55;;;;;;;12.18;4.95;;;12.20;99.90;;;;;;4972454;28;20037;-29
2022/05/22 00:04:21;;;;;;;12.38;4.60;;;12.20;99.90;;;;;;4970184;28;20026;-26
2022/05/22 00:06:48;;;;;;;9.98;5.05;;;12.20;99.90;;;;;;4973240;28;20018;-29
2022/05/22 00:09:13;;;;;;;9.88;4.30;;;12.10;99.90;;;;;;4974457;28;20065;-30
2022/05/22 00:11:39;;;;;;;12.73;4.18;;;12.10;99.90;;;;;;4972195;28;20498;-36
2022/05/22 00:14:05;;;;;;;12.27;4.50;;;12.00;99.90;;;;;;4973139;28;20114;-33
2022/05/22 00:16:36;;;;;;;13.07;4.45;;;12.00;99.90;;;;;;4972890;28;20027;-37
2022/05/22 00:19:15;;;;;;;9.70;3.85;;;12.00;99.90;;;;;;4973703;28;20082;-37
2022/05/22 00:21:41;;;;;;;7.90;3.75;;;12.00;99.90;;;;;;4973705;28;20031;-38
2022/05/22 00:24:08;;;;;;;10.68;4.28;;;12.00;99.90;;;;;;4963094;28;20020;-36
2022/05/22 00:26:34;;;;;;;9.07;4.05;;;11.90;99.90;;;;;;4971399;28;20106;-56
2022/05/22 00:28:59;;;;;;;9.25;4.03;;;11.90;99.90;;;;;;4972891;28;20058;-37
2022/05/22 00:31:25;;;;;;;10.48;4.15;;;11.80;99.90;;;;;;4974030;28;20121;-38
2022/05/22 00:33:51;;;;;;;13.02;4.80;;;11.80;99.90;;;;;;4972061;28;20102;-36
2022/05/22 00:36:17;;;;;;;9.93;4.07;;;11.80;99.90;;;;;;4970653;28;20026;-36
2022/05/22 00:38:42;;;;;;;11.32;4.68;;;11.80;99.90;;;;;;4973410;28;20027;-40
2022/05/22 00:41:09;;;;;;;17.75;4.93;;;11.70;99.90;;;;;;4974285;28;20368;-34
2022/05/22 00:43:37;;;;;;;8.20;4.35;;;11.70;99.90;;;;;;4963497;28;20024;-36
2022/05/22 00:46:06;;;;;;;10.30;4.18;;;11.70;99.90;;;;;;4963897;28;20483;-36
2022/05/22 00:48:32;;;;;;;16.55;4.40;;;11.70;99.90;;;;;;4971799;28;20467;-36
2022/05/22 00:51:04;;;;;;;16.83;5.15;;;11.70;99.90;;;;;;4973099;28;20471;-35
2022/05/22 00:53:33;;;;;;;14.75;5.25;;;11.70;99.90;;;;;;4970944;28;20038;-35
2022/05/22 00:56:01;;;;;;;11.13;4.22;;;11.60;99.90;;;;;;4974920;28;20026;-35
2022/05/22 00:58:29;;;;;;;16.33;4.68;;;11.60;99.90;;;;;;4975357;28;20019;-35
2022/05/22 01:00:56;;;;;;;12.88;5.03;;;11.60;99.90;;;;;;4975706;28;20471;-34
2022/05/22 01:03:27;;;;;;;6.63;4.03;;;11.60;99.90;;;;;;4976621;28;20030;-35
2022/05/22 01:06:07;;;;;;;11.75;4.13;;;11.60;99.90;;;;;;4973761;28;20054;-35
2022/05/22 01:08:35;;;;;;;16.38;4.63;;;11.60;99.90;;;;;;4975543;28;20035;-34
2022/05/22 01:11:06;;;;;;;10.57;4.28;;;11.60;99.90;;;;;;4970738;28;20503;-36
2022/05/22 01:13:36;;;;;;;10.05;4.78;;;11.60;99.90;;;;;;4974389;28;20051;-36
2022/05/22 01:16:05;;;;;;;11.25;4.20;;;11.60;99.90;;;;;;4974048;28;20114;-34
2022/05/22 01:18:41;;;;;;;12.02;3.90;;;11.50;99.90;;;;;;4975405;28;20534;-36
2022/05/22 01:21:11;;;;;;;14.73;3.97;;;11.50;99.90;;;;;;4976011;28;20042;-36
2022/05/22 01:23:37;;;;;;;11.60;4.60;;;11.50;99.90;;;;;;4972443;28;20091;-34
2022/05/22 01:26:02;;;;;;;9.40;3.78;;;11.50;99.90;;;;;;4973381;28;20031;-36
2022/05/22 01:28:28;;;;;;;7.25;3.33;;;11.50;99.90;;;;;;4975383;28;20034;-39
2022/05/22 01:30:54;;;;;;;7.93;3.78;;;11.50;99.90;;;;;;4960096;28;20391;-36
2022/05/22 01:33:19;;;;;;;5.43;3.75;;;11.50;99.90;;;;;;4966180;28;20544;-29
2022/05/22 01:35:45;;;;;;;7.85;3.50;;;11.50;99.90;;;;;;4975747;28;20030;-27
2022/05/22 01:38:10;;;;;;;7.93;3.55;;;11.50;99.90;;;;;;4976624;28;20063;-28
2022/05/22 01:40:36;;;;;;;12.88;3.60;;;11.50;99.90;;;;;;4975645;28;20431;-35
2022/05/22 01:43:02;;;;;;;10.10;3.33;;;11.40;99.90;;;;;;4974995;28;20077;-36
2022/05/22 01:45:28;;;;;;;5.85;3.15;;;11.40;99.90;;;;;;4972605;28;20035;-37
2022/05/22 01:47:54;;;;;;;8.30;3.92;;;11.50;99.90;;;;;;4975092;28;20090;-37
2022/05/22 01:50:21;;;;;;;6.00;3.38;;;11.50;99.90;;;;;;4974171;28;20372;-49
2022/05/22 01:52:47;;;;;;;7.93;3.63;;;11.50;99.90;;;;;;4974113;28;20033;-35
2022/05/22 01:55:13;;;;;;;9.20;3.63;;;11.50;99.90;;;;;;4972357;28;20034;-34
2022/05/22 01:57:39;;;;;;;9.77;3.97;;;11.40;99.90;;;;;;4975805;28;20031;-34
2022/05/22 02:00:10;;;;;;;8.55;3.63;;;11.40;99.90;;;;;;4974187;28;20030;-35
2022/05/22 02:02:35;;;;;;;8.65;3.83;;;11.40;99.90;;;;;;4971416;28;20039;-36
2022/05/22 02:05:02;;;;;;;10.07;3.90;;;11.40;99.90;;;;;;4967176;28;20030;-34
2022/05/22 02:10:12;;;;;;;8.35;4.38;;;11.40;99.90;;;;;;4974653;28;20124;-34
2022/05/22 02:12:38;;;;;;;9.75;3.72;;;11.40;99.90;;;;;;4974248;28;20482;-36
2022/05/22 02:15:05;;;;;;;7.93;3.83;;;11.40;99.90;;;;;;4972830;28;20514;-42
2022/05/22 02:17:31;;;;;;;10.13;4.18;;;11.30;99.90;;;;;;4974372;28;20494;-35
2022/05/22 02:19:57;;;;;;;10.57;4.53;;;11.30;99.90;;;;;;4970448;28;20066;-35
2022/05/22 02:22:23;;;;;;;9.32;4.18;;;11.20;99.90;;;;;;4975116;28;20031;-34
2022/05/22 02:24:51;;;;;;;6.82;3.97;;;11.30;99.90;;;;;;4968448;28;20620;-34
2022/05/22 02:27:17;;;;;;;8.90;4.07;;;11.20;99.90;;;;;;4971995;28;20027;-34
2022/05/22 02:29:43;;;;;;;9.02;4.50;;;11.20;99.90;;;;;;4975027;28;20027;-35
2022/05/22 02:32:09;;;;;;;12.57;4.18;;;11.20;99.90;;;;;;4972944;28;20413;-33
2022/05/22 02:34:35;;;;;;;9.10;3.60;;;11.30;99.90;;;;;;4973415;28;20117;-34
2022/05/22 02:37:00;;;;;;;12.55;3.88;;;11.30;99.90;;;;;;4974483;28;20019;-36
2022/05/22 02:39:26;;;;;;;9.23;3.95;;;11.30;99.90;;;;;;4974076;28;20479;-36
2022/05/22 02:41:52;;;;;;;5.80;3.60;;;11.30;99.90;;;;;;4974374;28;20403;-35
2022/05/22 02:44:18;;;;;;;6.47;3.60;;;11.30;99.90;;;;;;4973963;28;20026;-35
2022/05/22 02:46:43;;;;;;;7.25;3.70;;;11.30;99.90;;;;;;4974326;28;20538;-35
2022/05/22 02:49:09;;;;;;;6.10;2.93;;;11.30;99.90;;;;;;4972899;28;20395;-36
2022/05/22 02:51:36;;;;;;;7.07;4.03;;;11.20;99.90;;;;;;4973483;28;20279;-70
2022/05/22 02:54:03;;;;;;;9.63;3.60;;;11.20;99.90;;;;;;4974454;28;20033;-36
2022/05/22 02:56:28;;;;;;;5.38;3.53;;;11.20;99.90;;;;;;4971226;28;20153;-38
2022/05/22 02:58:54;;;;;;;7.32;4.03;;;11.10;99.90;;;;;;4975153;28;20459;-36
2022/05/22 03:01:20;;;;;;;10.35;3.72;;;11.10;99.90;;;;;;4974508;28;20030;-35
2022/05/22 03:03:45;;;;;;;12.18;4.55;;;11.10;99.90;;;;;;4968967;28;20034;-35
2022/05/22 03:08:56;;;;;;;8.23;3.20;;;11.20;99.90;;;;;;4970126;28;20037;-26
2022/05/22 03:11:22;;;;;;;9.45;3.80;;;11.20;99.90;;;;;;4974738;28;20105;-30
2022/05/22 03:13:47;;;;;;;13.38;3.95;;;11.10;99.90;;;;;;4972990;28;20043;-27
2022/05/22 03:16:13;;;;;;;5.63;3.25;;;11.10;99.90;;;;;;4972099;28;20476;-26
2022/05/22 03:18:39;;;;;;;7.65;4.03;;;11.10;99.90;;;;;;4973684;28;20468;-26
2022/05/22 03:21:05;;;;;;;7.72;3.08;;;11.00;99.90;;;;;;4973467;28;20081;-27
2022/05/22 03:23:31;;;;;;;7.53;3.28;;;11.10;99.90;;;;;;4971524;28;20025;-29
2022/05/22 03:25:57;;;;;;;11.60;3.80;;;11.00;99.90;;;;;;4971765;28;20382;-30
2022/05/22 03:28:23;;;;;;;10.80;3.45;;;11.10;99.90;;;;;;4974718;28;20105;-28
2022/05/22 03:30:49;;;;;;;14.20;4.13;;;11.00;99.90;;;;;;4972049;28;20171;-26
2022/05/22 03:33:15;;;;;;;17.33;4.65;;;11.00;99.90;;;;;;4973733;28;20069;-26
2022/05/22 03:35:41;;;;;;;7.60;4.03;;;11.10;99.90;;;;;;4970466;28;20015;-30
2022/05/22 03:38:07;;;;;;;12.55;3.95;;;11.00;99.90;;;;;;4957499;28;20038;-26
2022/05/22 03:40:36;;;;;;;11.80;4.13;;;11.00;99.90;;;;;;4974452;28;20061;-31
2022/05/22 03:43:02;;;;;;;8.13;3.45;;;11.00;99.90;;;;;;4965746;28;20015;-29
2022/05/22 03:45:27;;;;;;;6.25;3.67;;;11.00;99.90;;;;;;4970402;28;20030;-37
2022/05/22 03:47:54;;;;;;;10.82;4.05;;;11.00;99.90;;;;;;4969459;28;20520;-26
2022/05/22 03:50:20;;;;;;;7.70;3.80;;;11.00;99.90;;;;;;4963147;28;20459;-32
2022/05/22 03:52:49;;;;;;;11.18;3.67;;;11.00;99.90;;;;;;4973694;28;20026;-26
2022/05/22 03:55:15;;;;;;;10.40;3.90;;;11.00;99.90;;;;;;4971626;28;20078;-27
2022/05/22 03:57:45;;;;;;;9.50;3.97;;;11.00;99.90;;;;;;4973489;28;20467;-29
2022/05/22 04:00:11;;;;;;;6.03;3.35;;;11.10;99.90;;;;;;4972495;28;20054;-28
2022/05/22 04:02:37;;;;;;;8.15;3.83;;;11.10;99.90;;;;;;4973281;28;20022;-26
2022/05/22 04:05:04;;;;;;;10.10;3.58;;;11.10;99.90;;;;;;4963971;28;20435;-31
2022/05/22 04:07:29;;;;;;;12.05;3.25;;;11.10;99.90;;;;;;4973431;28;20117;-26
2022/05/22 04:09:58;;;;;;;11.98;3.22;;;11.10;99.90;;;;;;4974476;28;20527;-29
2022/05/22 04:12:24;;;;;;;6.05;3.75;;;11.20;99.90;;;;;;4974186;28;20086;-27
2022/05/22 04:14:53;;;;;;;15.00;3.35;;;11.20;99.90;;;;;;4969716;28;20460;-27
2022/05/22 04:17:19;;;;;;;11.00;3.90;;;11.10;99.90;;;;;;4973116;28;20058;-27
2022/05/22 04:19:44;;;;;;;7.60;3.15;;;11.20;99.90;;;;;;4971968;28;20058;-29
2022/05/22 04:22:10;;;;;;;10.23;3.67;;;11.20;99.90;;;;;;4971087;28;20085;-28
2022/05/22 04:27:20;;;;;;;7.60;3.17;;;11.20;99.90;;;;;;4973519;28;20045;-27
2022/05/22 04:29:45;;;;;;;9.75;3.55;;;11.30;99.90;;;;;;4975824;28;20468;-30
2022/05/22 04:32:11;;;;;;;4.75;3.05;;;11.30;99.90;;;;;;4973653;28;20039;-32
2022/05/22 04:34:37;;;;;;;8.77;2.55;;;11.40;99.90;;;;;;4975082;28;20015;-30
2022/05/22 04:37:04;;;;;;;6.65;3.63;;;11.50;99.90;;;;;;4975821;28;20078;-28
2022/05/22 04:39:29;;;;;;;7.35;3.17;;;11.50;99.90;;;;;;4977693;28;20023;-27
2022/05/22 04:41:55;;;;;;;5.97;3.38;;;11.60;99.90;;;;;;4975061;28;20031;-28
2022/05/22 04:44:20;;;;;;;10.45;2.88;;;11.70;99.90;;;;;;4973150;28;20036;-30
2022/05/22 04:46:46;;;;;;;8.30;3.88;;;11.80;99.90;;;;;;4958203;28;20078;-26
2022/05/22 04:49:12;;;;;;;7.75;3.47;;;11.80;99.90;;;;;;4963485;28;20542;-34
2022/05/22 04:51:38;;;;;;;8.50;3.30;;;11.90;99.90;;;;;;4974934;28;20062;-28
2022/05/22 04:54:04;;;;;;;11.23;3.05;;;11.90;99.90;;;;;;4976504;28;20034;-29
2022/05/22 04:56:30;;;;;;;10.95;3.67;;;12.00;99.90;;;;;;4976605;28;20023;-28
2022/05/22 04:58:56;;;;;;;8.40;3.42;;;12.10;99.90;;;;;;4976328;28;20510;-27
2022/05/22 05:01:21;;;;;;;7.72;3.65;;;12.10;99.90;;;;;;4975367;28;20098;-28
2022/05/22 05:03:47;;;;;;;6.20;3.30;;;12.20;99.90;;;;;;4969546;28;20427;-32
2022/05/22 05:06:13;;;;;;;9.63;3.83;;;12.30;99.90;;;;;;4972725;28;20039;-28
2022/05/22 05:08:38;;;;;;;6.25;3.70;;;12.40;99.90;;;;;;4976296;28;20802;-27
2022/05/22 05:11:04;;;;;;;6.03;4.10;;;12.50;99.90;;;;;;4975973;28;20027;-28
2022/05/22 05:13:30;;;;;;;17.15;4.35;;;12.60;99.90;;;;;;4974380;28;20053;-29
2022/05/22 05:16:04;;;;;;;9.60;4.10;;;12.70;99.90;;;;;;4975554;28;20118;-27
2022/05/22 05:18:31;;;;;;;9.27;4.10;;;12.80;99.90;;;;;;4974880;28;20170;-27
2022/05/22 05:23:44;;;;;;;;;;;13.00;99.90;;;;;;4976584;28;20045;-28
2022/05/22 05:26:09;;;;;;;13.20;4.00;;;13.10;99.90;;;;;;4975993;28;19997;-27
2022/05/22 05:28:35;;;;;;;12.65;4.38;;;13.20;99.90;;;;;;4976114;28;20493;-29
2022/05/22 05:31:02;;;;;;;17.83;5.03;;;13.30;99.90;;;;;;4976690;28;20035;-27
2022/05/22 05:33:30;;;;;;;11.20;4.30;;;13.40;99.90;;;;;;4973130;28;20475;-26
2022/05/22 05:35:56;;;;;;;12.90;3.88;;;13.50;99.90;;;;;;4975330;28;20019;-27
2022/05/22 05:38:21;;;;;;;16.90;4.95;;;13.60;99.90;;;;;;4971577;28;20061;-29
2022/05/22 05:40:50;;;;;;;10.85;3.90;;;13.70;99.90;;;;;;4975052;28;20085;-34
2022/05/22 05:43:16;;;;;;;12.73;4.00;;;13.90;99.90;;;;;;4974624;28;20471;-29
2022/05/22 05:45:43;;;;;;;10.90;3.72;;;14.10;99.90;;;;;;4976118;28;20422;-27
2022/05/22 05:48:09;;;;;;;14.45;4.25;;;14.10;99.90;;;;;;4975664;28;20034;-30
2022/05/22 05:50:35;;;;;;;6.35;3.28;;;14.20;99.90;;;;;;4975707;28;20039;-29
2022/05/22 05:53:01;;;;;;;9.57;3.80;;;14.20;99.90;;;;;;4972709;28;20078;-27
2022/05/22 05:55:27;;;;;;;6.78;3.50;;;14.30;99.90;;;;;;4975112;28;20027;-29
2022/05/22 05:57:53;;;;;;;6.47;3.42;;;14.50;99.90;;;;;;4976292;28;20031;-28
2022/05/22 06:00:21;;;;;;;10.48;3.72;;;14.60;99.90;;;;;;4972414;28;20434;-33
2022/05/22 06:02:47;;;;;;;5.38;3.42;;;14.80;99.90;;;;;;4974883;28;20035;-30
2022/05/22 06:05:13;;;;;;;15.80;4.47;;;14.90;99.90;;;;;;4974179;28;20050;-29
2022/05/22 06:07:39;;;;;;;10.60;3.70;;;15.10;99.90;;;;;;4976096;28;20041;-28
2022/05/22 06:10:08;;;;;;;7.05;3.58;;;15.20;99.90;;;;;;4976132;28;20026;-39
2022/05/22 06:12:34;;;;;;;10.00;3.90;;;15.40;99.90;;;;;;4974999;28;20023;-29
2022/05/22 06:14:59;;;;;;;12.02;3.58;;;15.50;99.90;;;;;;4975538;28;20173;-35
2022/05/22 06:17:30;;;;;;;8.00;3.92;;;15.50;99.90;;;;;;4974521;28;20022;-27
2022/05/22 06:19:56;;;;;;;10.40;3.08;;;16.20;99.90;;;;;;4974270;28;20506;-28
2022/05/22 06:22:24;;;;;;;5.53;3.00;;;18.40;99.90;;;;;;4971847;28;20074;-30
2022/05/22 06:24:50;;;;;;;6.72;2.97;;;20.60;99.90;;;;;;4973159;28;20050;-30
2022/05/22 06:27:16;;;;;;;9.05;2.88;;;21.20;99.90;;;;;;4975759;28;20030;-27
2022/05/22 06:29:43;;;;;;;10.35;3.05;;;20.60;99.90;;;;;;4974674;28;20517;-27
2022/05/22 06:32:12;;;;;;;12.80;2.83;;;19.90;99.90;;;;;;4975023;28;20018;-32
2022/05/22 06:34:41;;;;;;;8.68;3.13;;;19.50;99.90;;;;;;4972878;28;20027;-27
2022/05/22 06:37:13;;;;;;;8.30;2.55;;;19.50;99.90;;;;;;4974524;28;20542;-30
2022/05/22 06:39:51;;;;;;;10.00;2.80;;;19.60;99.90;;;;;;4967195;28;20030;-28
2022/05/22 06:42:28;;;;;;;7.80;2.50;;;19.60;99.90;;;;;;4971311;28;20039;-29
2022/05/22 06:44:56;;;;;;;11.23;2.85;;;19.80;99.90;;;;;;4975385;28;20034;-30
2022/05/22 06:47:24;;;;;;;12.20;3.35;;;20.40;99.90;;;;;;4974557;28;20043;-30
2022/05/22 06:49:50;;;;;;;;;;;21.20;99.90;;;;;;4974275;28;20549;-27
2022/05/22 06:52:15;;;;;;;10.07;2.63;;;21.70;99.90;;;;;;4971816;28;20358;-27
2022/05/22 06:54:41;;;;;;;7.38;2.58;;;22.50;99.90;;;;;;4970773;28;20034;-26
2022/05/22 06:57:07;;;;;;;4.90;2.25;;;23.60;99.90;;;;;;4973773;28;20030;-27
2022/05/22 06:59:33;;;;;;;5.03;2.08;;;24.60;99.90;;;;;;4974069;28;20066;-34
2022/05/22 07:02:00;;;;;;;10.27;3.03;;;25.30;99.30;;;;;;4970884;28;20023;-32
2022/05/22 07:04:26;;;;;;;5.20;1.93;;;25.40;97.50;;;;;;4973924;28;20429;-27
2022/05/22 07:06:52;;;;;;;5.90;2.33;;;24.70;97.40;;;;;;4973763;28;20281;-29
2022/05/22 07:09:18;;;;;;;9.73;2.42;;;24.30;98.80;;;;;;4970157;28;20117;-35
2022/05/22 07:11:45;;;;;;;9.02;3.13;;;24.30;99.00;;;;;;4974130;28;20484;-28
2022/05/22 07:14:15;;;;;;;7.80;2.27;;;24.20;99.00;;;;;;4973898;28;20687;-28
2022/05/22 07:16:41;;;;;;;9.85;2.00;;;24.20;98.30;;;;;;4974897;28;20294;-27
2022/05/22 07:19:10;;;;;;;4.32;1.77;;;24.00;97.50;;;;;;4972765;28;20059;-27
2022/05/22 07:21:36;;;;;;;5.78;1.83;;;23.70;98.10;;;;;;4970808;28;20526;-29
2022/05/22 07:24:01;;;;;;;6.32;1.60;;;23.60;98.60;;;;;;4963781;28;20034;-35
2022/05/22 07:26:28;;;;;;;6.28;2.17;;;23.60;98.90;;;;;;4961539;28;20102;-31
2022/05/22 07:28:54;;;;;;;11.63;2.35;;;23.50;98.50;;;;;;4970638;28;20027;-28
2022/05/22 07:31:24;;;;;;;9.88;2.85;;;23.20;98.60;;;;;;4974932;28;20030;-29
2022/05/22 07:33:50;;;;;;;5.57;1.20;;;22.60;98.40;;;;;;4973490;28;20102;-28
2022/05/22 07:36:16;;;;;;;6.40;1.63;;;21.90;97.40;;;;;;4972868;28;20134;-29
2022/05/22 07:38:43;;;;;;;6.30;1.52;;;21.40;98.20;;;;;;4974598;28;20498;-28
2022/05/22 07:41:09;;;;;;;16.60;1.40;;;21.10;99.10;;;;;;4971266;28;20515;-28
2022/05/22 07:43:35;;;;;;;3.30;1.13;;;20.90;99.30;;;;;;4973018;28;20521;-28
2022/05/22 07:46:01;;;;;;;2.65;1.35;;;20.90;99.10;;;;;;4973383;28;20031;-29
2022/05/22 07:48:27;;;;;;;5.70;1.92;;;21.10;98.10;;;;;;4963401;28;20038;-27
2022/05/22 07:51:00;;;;;;;8.00;1.80;;;21.10;98.60;;;;;;4974349;28;20026;-38
2022/05/22 07:53:27;;;;;;;8.45;0.88;;;21.20;98.60;;;;;;4973639;28;20019;-30
2022/05/22 07:55:53;;;;;;;6.00;1.95;;;21.10;98.10;;;;;;4969896;28;20054;-29
2022/05/22 07:58:21;;;;;;;4.43;2.10;;;21.20;98.40;;;;;;4973461;28;20446;-28
2022/05/22 08:00:47;;;;;;;8.63;2.05;;;21.40;98.30;;;;;;4972737;28;20554;-29
2022/05/22 08:03:15;;;;;;;9.85;2.20;;;21.60;98.50;;;;;;4969869;28;20480;-30
2022/05/22 08:05:41;;;;;;;6.90;2.45;;;21.60;98.80;;;;;;4975611;28;20041;-30
2022/05/22 08:08:07;;;;;;;11.45;1.80;;;21.80;98.40;;;;;;4973638;28;20489;-28
2022/05/22 08:10:36;;;;;;;3.87;1.03;;;22.00;97.80;;;;;;4973449;28;20526;-35
2022/05/22 08:13:04;;;;;;;4.55;2.00;;;22.20;98.80;;;;;;4975923;28;20050;-29
2022/05/22 08:15:31;;;;;;;7.47;1.88;;;22.30;98.30;;;;;;4973912;28;20408;-29
2022/05/22 08:17:58;;;;;;;5.95;1.50;;;22.40;97.20;;;;;;4958712;29;20058;-28
2022/05/22 08:20:25;;;;;;;9.05;1.48;;;22.60;96.90;;;;;;4973400;28;20086;-27
2022/05/22 08:22:56;;;;;;;9.63;2.08;;;22.70;97.00;;;;;;4976724;28;20031;-28
2022/05/22 08:25:24;;;;;;;2.65;1.20;;;23.00;96.30;;;;;;4975321;28;20407;-29
2022/05/22 08:27:53;;;;;;;6.45;1.83;;;22.90;97.00;;;;;;4966754;28;20031;-32
2022/05/22 08:30:21;;;;;;;10.70;1.33;;;23.10;96.50;;;;;;4986134;28;20027;-34
2022/05/22 08:35:37;;;;;;;4.65;1.40;;;23.50;95.20;;;;;;4974609;28;20558;-31
2022/05/22 08:38:04;;;;;;;4.43;1.20;;;23.50;95.60;;;;;;4973659;28;20022;-28
2022/05/22 08:40:47;;;;;;;4.25;1.27;;;23.40;96.30;;;;;;4976118;28;20037;-29
2022/05/22 08:43:41;;;;;;;6.57;1.95;;;23.50;96.30;;;;;;4972009;28;20352;-29
2022/05/22 08:46:14;;;;;;;4.53;1.70;;;23.30;95.40;;;;;;4946999;28;20054;-30
2022/05/22 08:48:56;;;;;;;10.15;2.20;;;23.90;94.80;;;;;;4976964;28;20026;-30
2022/05/22 08:51:41;;;;;;;6.45;1.70;;;24.00;94.80;;;;;;4975284;28;20038;-28
2022/05/22 08:54:56;;;;;;;5.28;1.30;;;24.00;95.20;;;;;;4976393;28;20027;-31
2022/05/22 09:00:17;;;;;;;4.95;1.40;;;24.30;94.50;;;;;;4975279;28;20046;-28
2022/05/22 09:02:58;;;;;;;5.65;1.67;;;24.10;94.60;;;;;;4972806;28;20407;-31
2022/05/22 09:05:28;;;;;;;4.20;1.23;;;23.80;94.90;;;;;;4974963;28;20030;-29
2022/05/22 09:08:08;;;;;;;4.45;1.30;;;23.10;95.40;;;;;;4977724;28;20490;-28
2022/05/22 09:11:05;;;;;;;7.07;1.45;;;23.20;94.70;;;;;;4973871;28;20039;-35
2022/05/22 09:13:56;;;;;;;2.83;1.20;;;23.30;95.50;;;;;;4971771;28;20054;-27
2022/05/22 09:16:28;;;;;;;9.80;1.65;;;23.40;94.90;;;;;;4974123;28;20506;-30
2022/05/22 09:19:11;;;;;;;8.93;1.38;;;23.40;94.60;;;;;;4972620;28;20026;-33
2022/05/22 09:21:42;;;;;;;8.98;1.65;;;23.30;95.50;;;;;;4977011;28;20550;-29
2022/05/22 09:24:34;;;;;;;10.27;1.65;;;23.30;96.20;;;;;;4972248;28;20030;-28
2022/05/22 09:27:08;;;;;;;7.05;1.65;;;23.40;94.90;;;;;;4977109;28;20431;-28
2022/05/22 09:29:46;;;;;;;10.73;1.48;;;23.80;95.50;;;;;;4975745;28;20033;-28
2022/05/22 09:32:14;;;;;;;7.43;1.73;;;24.10;95.00;;;;;;4973420;28;20065;-27
2022/05/22 09:34:47;;;;;;;5.20;1.58;;;24.50;93.70;;;;;;4975281;28;20039;-30
2022/05/22 09:37:38;;;;;;;7.63;2.35;;;24.60;94.80;;;;;;4976695;28;20549;-28
2022/05/22 09:40:10;;;;;;;5.47;1.35;;;24.80;92.70;;;;;;4976118;28;20105;-29
2022/05/22 09:42:59;;;;;;;8.93;1.48;;;24.60;93.30;;;;;;4973560;28;20039;-27
2022/05/22 09:46:04;;;;;;;4.28;1.73;;;24.40;93.70;;;;;;4975055;28;20081;-29
2022/05/22 09:48:35;;;;;;;3.13;1.25;;;24.40;93.00;;;;;;4943908;28;20090;-27
2022/05/22 09:51:25;;;;;;;5.03;1.58;;;24.20;94.40;;;;;;4975703;28;20479;-29
2022/05/22 09:54:13;;;;;;;2.95;1.20;;;24.50;93.50;;;;;;4972628;28;20035;-29
2022/05/22 09:57:11;;;;;;;7.43;1.27;;;24.70;92.70;;;;;;4976293;28;20035;-31
2022/05/22 10:00:10;;;;;;;7.30;2.33;;;24.80;93.50;;;;;;4976352;28;20031;-29
2022/05/22 10:02:58;;;;;;;6.00;1.80;;;24.50;93.50;;;;;;4973426;28;20424;-35
2022/05/22 10:05:33;;;;;;;5.78;1.90;;;24.80;93.00;;;;;;4957136;28;20584;-41
2022/05/22 10:08:21;;;;;;;4.95;1.45;;;25.00;93.70;;;;;;4968688;28;20110;-44
2022/05/22 10:11:18;;;;;;;6.93;2.22;;;25.20;93.30;;;;;;4975898;28;20515;-30
2022/05/22 10:14:01;;;;;;;3.67;1.25;;;25.40;92.60;;;;;;4938998;28;20061;-30
2022/05/22 10:17:04;;;;;;;4.25;1.10;;;25.90;89.80;;;;;;4968395;28;20027;-28
2022/05/22 10:19:51;;;;;;;4.00;1.38;;;26.00;90.10;;;;;;4960117;28;20054;-30
2022/05/22 10:22:52;;;;;;;4.40;1.48;;;25.90;90.10;;;;;;4975184;28;20495;-29
2022/05/22 10:25:50;;;;;;;3.83;1.27;;;25.70;90.70;;;;;;4962003;28;20133;-30
2022/05/22 10:28:22;;;;;;;4.13;1.10;;;25.20;89.60;;;;;;4975162;28;20035;-29
2022/05/22 10:31:24;;;;;;;3.35;1.30;;;24.80;89.10;;;;;;4975097;28;20423;-28
2022/05/22 10:34:02;;;;;;;5.38;0.80;;;24.30;91.10;;;;;;4964777;28;20480;-30
2022/05/22 10:36:33;;;;;;;4.53;1.55;;;24.30;90.30;;;;;;4975664;28;20022;-29
2022/05/22 10:39:11;;;;;;;6.50;1.50;;;24.20;90.10;;;;;;4975609;28;20062;-31
2022/05/22 10:44:52;;;;;;;4.00;1.05;;;24.20;91.00;;;;;;4974457;28;20097;-29
2022/05/22 10:47:28;;;;;;;3.95;1.67;;;24.20;90.40;;;;;;4972974;28;20030;-28
2022/05/22 10:49:54;;;;;;;4.32;1.30;;;24.20;91.40;;;;;;4965562;28;20479;-28
2022/05/22 10:52:30;;;;;;;6.47;1.08;;;24.10;90.70;;;;;;4972504;28;20110;-31
2022/05/22 10:54:55;;;;;;;1.98;0.98;;;23.80;91.50;;;;;;4970128;28;20398;-29
2022/05/22 10:57:30;;;;;;;3.28;2.08;;;23.50;92.90;;;;;;4975161;28;20027;-32
2022/05/22 10:59:55;;;;;;;1.67;1.10;;;23.40;92.30;;;;;;4974110;28;20117;-32
2022/05/22 11:02:31;;;;;;;7.43;2.13;;;23.40;92.70;;;;;;4968869;28;20122;-35
2022/05/22 11:04:58;;;;;;;4.30;1.05;;;23.50;91.90;;;;;;4965356;28;20035;-29
2022/05/22 11:07:32;;;;;;;2.78;1.10;;;23.40;92.40;;;;;;4965652;28;20031;-31
2022/05/22 11:10:21;;;;;;;2.38;0.95;;;23.40;91.50;;;;;;4972476;28;20514;-42
2022/05/22 11:13:08;;;;;;;4.50;1.88;;;23.40;91.60;;;;;;4975008;28;20023;-30
2022/05/22 11:15:39;;;;;;;4.53;2.00;;;23.40;93.10;;;;;;4973378;28;20049;-33
2022/05/22 11:18:26;;;;;;;6.65;1.40;;;23.50;92.90;;;;;;4966679;28;20090;-38
2022/05/22 11:21:02;;;;;;;2.10;1.10;;;23.40;91.20;;;;;;4970695;28;20517;-31
2022/05/22 11:23:49;;;;;;;5.05;1.40;;;23.30;91.30;;;;;;4967125;28;20110;-29
2022/05/22 11:26:26;;;;;;;5.15;2.30;;;23.20;91.10;;;;;;4973673;28;20505;-30
2022/05/22 11:29:06;;;;;;;2.60;1.27;;;23.20;91.80;;;;;;4955660;28;20035;-28
2022/05/22 11:31:31;;;;;;;2.63;2.05;;;23.20;92.90;;;;;;4955628;28;20035;-32
2022/05/22 11:34:15;;;;;;;1.92;1.15;;;23.20;92.60;;;;;;4967671;28;20023;-27
2022/05/22 11:37:02;;;;;;;3.75;1.30;;;23.40;92.10;;;;;;4973362;28;20031;-31
2022/05/22 11:39:46;;;;;;;;;;;23.50;92.30;;;;;;4961777;28;20471;-29
2022/05/22 11:42:17;;;;;;;5.25;1.60;;;23.60;92.40;;;;;;4974780;28;19941;-28
2022/05/22 11:45:06;;;;;;;4.78;1.65;;;23.80;91.80;;;;;;4970716;28;20349;-32
2022/05/22 11:47:51;;;;;;;2.53;1.35;;;24.00;92.40;;;;;;4980553;28;20495;-35
2022/05/22 11:51:00;;;;;;;3.05;1.40;;;24.20;92.00;;;;;;4955154;29;20556;-30
2022/05/22 11:54:04;;;;;;;7.03;2.30;;;24.30;90.40;;;;;;4960655;28;20550;-32
2022/05/22 11:56:54;;;;;;;3.47;1.80;;;24.20;91.50;;;;;;4972202;28;20035;-30
2022/05/22 11:59:42;;;;;;;3.67;1.70;;;24.20;91.90;;;;;;4955107;29;20035;-31
2022/05/22 12:02:37;;;;;;;9.18;2.35;;;24.20;92.00;;;;;;4967594;28;20030;-31
2022/05/22 12:05:20;;;;;;;5.95;2.85;;;24.40;91.50;;;;;;4958954;28;20031;-34
2022/05/22 12:08:07;;;;;;;5.43;3.00;;;24.40;92.90;;;;;;4963883;28;20437;-35
2022/05/22 12:10:53;;;;;;;6.05;2.88;;;24.40;92.70;;;;;;4969191;28;20531;-32
2022/05/22 12:13:24;;;;;;;6.22;2.90;;;24.30;92.40;;;;;;4967999;28;20501;-32
2022/05/22 12:16:10;;;;;;;4.28;2.58;;;24.40;92.00;;;;;;4970396;28;20046;-33
2022/05/22 12:18:55;;;;;;;7.95;3.38;;;24.40;92.60;;;;;;4973706;28;20038;-28
2022/05/22 12:21:25;;;;;;;14.18;3.88;;;24.20;92.80;;;;;;4973220;28;20101;-28
2022/05/22 12:23:56;;;;;;;6.25;3.10;;;24.10;92.70;;;;;;4972226;28;20038;-31
2022/05/22 12:26:24;;;;;;;5.72;3.13;;;24.00;92.20;;;;;;4969745;28;20035;-29
2022/05/22 12:29:01;;;;;;;;;;;24.00;92.80;;;;;;4971238;28;20122;-30
2022/05/22 12:31:40;;;;;;;;;;;24.10;91.60;;;;;;4975055;28;20367;-28
2022/05/22 12:34:15;;;;;;;5.75;3.22;;;24.10;92.50;;;;;;4974271;28;19933;-29
2022/05/22 12:36:48;;;;;;;5.75;3.05;;;24.00;92.90;;;;;;4974078;28;20042;-31
2022/05/22 12:39:16;;;;;;;7.68;3.58;;;24.10;92.00;;;;;;4973359;28;20173;-32
2022/05/22 12:42:00;;;;;;;6.15;3.20;;;24.00;91.70;;;;;;4971502;28;20518;-30
2022/05/22 12:44:28;;;;;;;4.53;2.33;;;23.70;92.00;;;;;;4974116;28;20495;-25
2022/05/22 12:46:54;;;;;;;;;;;23.20;93.70;;;;;;4970108;28;20093;-28
2022/05/22 12:49:27;;;;;;;5.65;2.78;;;23.10;92.60;;;;;;4973894;28;20362;-30
2022/05/22 12:52:27;;;;;;;4.30;2.53;;;23.30;91.70;;;;;;4976389;28;20500;-32
2022/05/22 12:55:20;;;;;;;4.40;3.03;;;23.40;91.60;;;;;;4957976;28;20038;-28
2022/05/22 12:57:53;;;;;;;7.53;3.50;;;23.60;92.50;;;;;;4972888;28;20499;-34
2022/05/22 13:00:39;;;;;;;8.77;3.20;;;23.70;92.30;;;;;;4976123;28;20483;-30
2022/05/22 13:03:14;;;;;;;11.30;3.95;;;23.80;92.50;;;;;;4966520;28;20038;-28
2022/05/22 13:05:42;;;;;;;3.63;2.65;;;23.80;93.20;;;;;;4975287;28;20509;-30
2022/05/22 13:08:22;;;;;;;4.82;2.75;;;23.90;92.70;;;;;;4972731;28;20030;-30
2022/05/22 13:10:53;;;;;;;3.45;2.90;;;24.00;92.10;;;;;;4969722;28;20085;-29
2022/05/22 13:13:29;;;;;;;5.10;3.47;;;24.10;91.60;;;;;;4977180;28;20035;-29
2022/05/22 13:16:06;;;;;;;6.72;2.70;;;24.10;92.60;;;;;;4971220;28;20503;-31
2022/05/22 13:18:32;;;;;;;6.10;3.17;;;24.20;93.00;;;;;;4977129;28;20042;-30
2022/05/22 13:21:01;;;;;;;8.23;3.50;;;24.40;91.80;;;;;;4975522;28;20482;-27
2022/05/22 13:23:32;;;;;;;4.38;3.00;;;24.40;93.00;;;;;;4977173;28;20027;-30
2022/05/22 13:26:03;;;;;;;6.00;3.05;;;24.50;91.60;;;;;;4972482;28;20506;-31
2022/05/22 13:28:37;;;;;;;5.85;3.30;;;24.70;91.80;;;;;;4976394;28;20030;-32